Time;durP1;ratioP1;P1;durP2;ratioP2;P2;SDS_P1;SDS_P2;PMS_P1;PMS_P2;Temp;Humidity;BMP_temperature;BMP_pressure;BME280_temperature;BME280_humidity;BME280_pressure;Samples;Min_cycle;Max_cycle;Signal;HPM_P1;HPM_P2
2022/07/14 00:01:05;;;;;;;2.63;1.60;;;;;;;;;;5043992;28;20675;-63
2022/07/14 00:03:33;;;;;;;3.20;1.70;;;;;;;;;;5031218;28;20195;-62
2022/07/14 00:06:06;;;;;;;3.27;1.70;;;;;;;;;;5047486;28;20210;-62
2022/07/14 00:08:39;;;;;;;3.13;1.60;;;;;;;;;;5052180;28;20201;-62
2022/07/14 00:11:07;;;;;;;3.23;1.77;;;;;;;;;;5049707;28;20206;-62
2022/07/14 00:13:40;;;;;;;2.80;1.83;;;;;;;;;;5037674;28;21017;-62
2022/07/14 00:16:11;;;;;;;2.73;1.53;;;;;;;;;;5048281;28;20186;-63
2022/07/14 00:18:45;;;;;;;4.03;1.70;;;;;;;;;;5047527;28;20542;-62
2022/07/14 00:21:16;;;;;;;3.73;1.67;;;;;;;;;;5051625;28;20193;-61
2022/07/14 00:23:47;;;;;;;4.47;1.63;;;;;;;;;;5019371;28;20230;-62
2022/07/14 00:26:20;;;;;;;3.30;1.93;;;;;;;;;;5049412;28;20190;-62
2022/07/14 00:28:53;;;;;;;3.87;1.60;;;;;;;;;;5054334;28;20286;-62
2022/07/14 00:31:24;;;;;;;3.23;1.50;;;;;;;;;;5046919;28;20190;-61
2022/07/14 00:33:56;;;;;;;3.23;1.50;;;;;;;;;;5048468;28;20218;-62
2022/07/14 00:36:26;;;;;;;2.53;1.60;;;;;;;;;;5017455;28;20611;-62
2022/07/14 00:38:59;;;;;;;3.73;1.93;;;;;;;;;;5049491;28;20300;-62
2022/07/14 00:41:32;;;;;;;3.37;1.70;;;;;;;;;;5045290;28;20202;-62
2022/07/14 00:44:03;;;;;;;3.83;1.90;;;;;;;;;;5049546;28;20241;-62
2022/07/14 00:46:33;;;;;;;3.40;1.83;;;;;;;;;;5052105;28;20210;-62
2022/07/14 00:49:06;;;;;;;3.93;1.43;;;;;;;;;;5043705;28;20240;-62
2022/07/14 00:51:46;;;;;;;3.47;1.70;;;;;;;;;;5050928;28;20522;-62
2022/07/14 00:54:26;;;;;;;3.17;1.60;;;;;;;;;;5032732;28;20647;-62
2022/07/14 00:56:58;;;;;;;2.67;1.63;;;;;;;;;;5027665;28;20228;-62
2022/07/14 00:59:29;;;;;;;2.93;1.40;;;;;;;;;;5037764;28;20190;-62
2022/07/14 01:01:59;;;;;;;2.50;1.70;;;;;;;;;;5047274;28;20190;-62
2022/07/14 01:04:32;;;;;;;3.23;1.53;;;;;;;;;;5053311;28;20225;-62
2022/07/14 01:07:01;;;;;;;2.60;1.40;;;;;;;;;;5053322;28;20213;-62
2022/07/14 01:09:36;;;;;;;1.90;1.30;;;;;;;;;;5031620;28;20203;-62
2022/07/14 01:12:05;;;;;;;3.93;2.00;;;;;;;;;;5041141;28;20218;-62
2022/07/14 01:14:35;;;;;;;3.30;1.47;;;;;;;;;;5048438;28;20758;-62
2022/07/14 01:17:09;;;;;;;3.50;1.70;;;;;;;;;;5047062;28;20224;-62
2022/07/14 01:19:39;;;;;;;4.27;1.90;;;;;;;;;;5048416;28;20199;-62
2022/07/14 01:22:07;;;;;;;2.57;1.50;;;;;;;;;;5054086;28;20998;-62
2022/07/14 01:24:39;;;;;;;4.33;1.80;;;;;;;;;;5030496;28;20272;-62
2022/07/14 01:27:11;;;;;;;4.20;1.80;;;;;;;;;;5046708;28;20225;-62
2022/07/14 01:29:45;;;;;;;3.77;1.50;;;;;;;;;;5051209;28;20187;-62
2022/07/14 01:32:25;;;;;;;2.77;1.47;;;;;;;;;;5051669;28;20209;-62
2022/07/14 01:34:55;;;;;;;2.93;1.67;;;;;;;;;;5053409;28;20273;-62
2022/07/14 01:37:25;;;;;;;2.70;1.43;;;;;;;;;;5041472;28;20225;-62
2022/07/14 01:39:55;;;;;;;4.13;1.70;;;;;;;;;;5059085;28;20197;-62
2022/07/14 01:42:27;;;;;;;3.13;1.43;;;;;;;;;;5030965;28;20241;-62
2022/07/14 01:44:58;;;;;;;4.57;1.73;;;;;;;;;;5054603;28;20725;-62
2022/07/14 01:47:31;;;;;;;2.97;1.40;;;;;;;;;;5036995;28;20741;-62
2022/07/14 01:50:00;;;;;;;3.53;1.40;;;;;;;;;;5052748;28;20200;-63
2022/07/14 01:52:29;;;;;;;2.60;1.53;;;;;;;;;;5046590;28;20199;-62
2022/07/14 01:55:00;;;;;;;2.27;1.50;;;;;;;;;;5052780;28;20226;-62
2022/07/14 01:57:32;;;;;;;2.93;1.70;;;;;;;;;;5058775;28;20526;-62
2022/07/14 02:00:02;;;;;;;4.17;1.90;;;;;;;;;;5032407;28;20197;-62
2022/07/14 02:02:35;;;;;;;3.20;1.30;;;;;;;;;;5062878;28;20244;-62
2022/07/14 02:05:10;;;;;;;3.17;1.53;;;;;;;;;;5056840;28;20212;-62
2022/07/14 02:07:38;;;;;;;4.40;1.93;;;;;;;;;;5055994;28;20194;-62
2022/07/14 02:13:02;;;;;;;3.03;1.60;;;;;;;;;;5048772;28;20210;-62
2022/07/14 02:15:32;;;;;;;5.27;1.57;;;;;;;;;;5047157;28;20201;-62
2022/07/14 02:18:03;;;;;;;2.80;1.50;;;;;;;;;;5059906;28;20206;-62
2022/07/14 02:20:47;;;;;;;3.20;1.53;;;;;;;;;;5035413;28;20195;-62
2022/07/14 02:23:25;;;;;;;2.43;1.47;;;;;;;;;;5044481;28;20561;-62
2022/07/14 02:25:54;;;;;;;2.43;1.20;;;;;;;;;;5049324;28;20605;-62
2022/07/14 02:28:26;;;;;;;3.23;1.30;;;;;;;;;;5048861;28;20201;-62
2022/07/14 02:30:57;;;;;;;3.47;1.60;;;;;;;;;;5035503;28;20546;-62
2022/07/14 02:33:30;;;;;;;3.47;1.70;;;;;;;;;;5049227;28;20230;-61
2022/07/14 02:35:59;;;;;;;2.93;1.20;;;;;;;;;;5059415;28;20294;-61
2022/07/14 02:38:30;;;;;;;3.73;1.63;;;;;;;;;;5061626;28;20276;-61
2022/07/14 02:41:04;;;;;;;5.67;1.80;;;;;;;;;;5055246;28;20198;-62
2022/07/14 02:43:49;;;;;;;2.97;1.50;;;;;;;;;;5036041;28;20197;-61
2022/07/14 02:46:18;;;;;;;3.23;1.60;;;;;;;;;;5049484;28;20198;-61
2022/07/14 02:48:48;;;;;;;3.10;1.60;;;;;;;;;;5049847;28;20300;-61
2022/07/14 02:51:32;;;;;;;3.33;1.77;;;;;;;;;;5055737;28;20244;-61
2022/07/14 02:54:04;;;;;;;4.17;1.60;;;;;;;;;;5049237;28;20218;-61
2022/07/14 02:56:32;;;;;;;2.90;1.50;;;;;;;;;;5056027;28;20202;-61
2022/07/14 02:59:06;;;;;;;2.97;1.70;;;;;;;;;;5056540;28;20197;-61
2022/07/14 03:01:37;;;;;;;3.13;1.50;;;;;;;;;;5041811;28;20201;-61
2022/07/14 03:04:09;;;;;;;3.30;1.67;;;;;;;;;;5054382;28;20186;-62
2022/07/14 03:06:41;;;;;;;5.30;1.67;;;;;;;;;;5053876;28;20206;-61
2022/07/14 03:09:13;;;;;;;3.03;1.53;;;;;;;;;;5050102;28;20191;-62
2022/07/14 03:11:43;;;;;;;3.77;1.70;;;;;;;;;;5043098;28;20944;-62
2022/07/14 03:14:21;;;;;;;3.90;1.50;;;;;;;;;;5049203;28;20278;-61
2022/07/14 03:16:57;;;;;;;3.77;1.50;;;;;;;;;;5048086;28;20191;-61
2022/07/14 03:19:29;;;;;;;5.57;1.97;;;;;;;;;;5055675;28;20197;-61
2022/07/14 03:21:57;;;;;;;4.87;1.73;;;;;;;;;;5046648;28;20558;-61
2022/07/14 03:24:30;;;;;;;3.73;1.70;;;;;;;;;;5047808;28;20282;-62
2022/07/14 03:27:04;;;;;;;2.70;1.50;;;;;;;;;;5064607;28;20201;-61
2022/07/14 03:29:34;;;;;;;2.00;1.40;;;;;;;;;;5037714;28;20197;-61
2022/07/14 03:32:06;;;;;;;3.13;1.60;;;;;;;;;;5037232;28;20202;-62
2022/07/14 03:34:38;;;;;;;3.87;1.83;;;;;;;;;;5056328;28;20210;-62
2022/07/14 03:37:09;;;;;;;3.53;1.50;;;;;;;;;;5050935;28;20206;-61
2022/07/14 03:39:46;;;;;;;3.67;1.57;;;;;;;;;;5056326;28;20535;-61
2022/07/14 03:42:18;;;;;;;4.03;1.50;;;;;;;;;;5050693;28;20687;-61
2022/07/14 03:44:51;;;;;;;4.17;1.50;;;;;;;;;;5048520;28;20195;-61
2022/07/14 03:47:22;;;;;;;2.77;1.60;;;;;;;;;;5061436;28;20213;-61
2022/07/14 03:50:04;;;;;;;7.53;1.70;;;;;;;;;;5052343;28;20688;-62
2022/07/14 03:52:34;;;;;;;5.80;1.77;;;;;;;;;;5031644;28;20217;-62
2022/07/14 03:55:05;;;;;;;5.07;2.10;;;;;;;;;;5051144;28;20201;-62
2022/07/14 03:57:34;;;;;;;4.03;1.70;;;;;;;;;;5045668;28;20237;-63
2022/07/14 04:00:08;;;;;;;3.77;1.60;;;;;;;;;;5044132;28;20221;-61
2022/07/14 04:02:39;;;;;;;4.63;1.80;;;;;;;;;;5047755;28;20190;-62
2022/07/14 04:05:11;;;;;;;4.07;1.70;;;;;;;;;;5052112;28;20202;-61
2022/07/14 04:07:45;;;;;;;4.23;1.80;;;;;;;;;;5041296;28;20202;-61
2022/07/14 04:10:16;;;;;;;4.53;1.70;;;;;;;;;;5047703;28;20202;-62
2022/07/14 04:12:49;;;;;;;6.13;2.00;;;;;;;;;;5044827;28;20218;-62
2022/07/14 04:15:24;;;;;;;3.00;1.67;;;;;;;;;;5054420;28;20205;-61
2022/07/14 04:17:54;;;;;;;3.83;1.80;;;;;;;;;;5031852;28;20207;-61
2022/07/14 04:20:24;;;;;;;4.73;1.90;;;;;;;;;;5052350;28;20193;-63
2022/07/14 04:22:54;;;;;;;3.23;1.70;;;;;;;;;;5064904;28;20185;-63
2022/07/14 04:25:28;;;;;;;4.33;1.90;;;;;;;;;;5032861;28;20221;-64
2022/07/14 04:27:57;;;;;;;6.13;1.90;;;;;;;;;;5059960;28;20228;-64
2022/07/14 04:30:31;;;;;;;4.17;2.13;;;;;;;;;;5047205;28;20205;-63
2022/07/14 04:33:09;;;;;;;3.13;1.60;;;;;;;;;;5032101;28;20616;-63
2022/07/14 04:35:40;;;;;;;3.60;2.07;;;;;;;;;;5033431;28;20320;-63
2022/07/14 04:38:13;;;;;;;3.47;1.60;;;;;;;;;;5063802;28;20197;-63
2022/07/14 04:40:53;;;;;;;4.27;1.80;;;;;;;;;;5059075;28;21500;-61
2022/07/14 04:43:23;;;;;;;4.73;2.10;;;;;;;;;;5047590;28;20249;-61
2022/07/14 04:45:53;;;;;;;3.27;1.63;;;;;;;;;;5045136;28;20198;-64
2022/07/14 04:48:27;;;;;;;4.10;1.97;;;;;;;;;;5046966;28;20843;-64
2022/07/14 04:53:42;;;;;;;3.43;1.97;;;;;;;;;;5057240;28;20195;-62
2022/07/14 04:56:16;;;;;;;3.20;1.70;;;;;;;;;;5057965;28;20205;-64
2022/07/14 04:58:47;;;;;;;19.70;5.70;;;;;;;;;;5046821;28;20539;-62
2022/07/14 05:01:19;;;;;;;23.23;6.13;;;;;;;;;;5041641;28;20218;-63
2022/07/14 05:03:51;;;;;;;20.13;5.73;;;;;;;;;;5058329;28;20198;-63
2022/07/14 05:06:22;;;;;;;16.97;5.43;;;;;;;;;;5055961;28;20228;-64
2022/07/14 05:08:55;;;;;;;15.90;5.27;;;;;;;;;;5054020;28;20238;-64
2022/07/14 05:11:26;;;;;;;12.40;4.80;;;;;;;;;;5057285;28;20285;-65
2022/07/14 05:13:57;;;;;;;14.73;4.80;;;;;;;;;;5048177;28;20198;-64
2022/07/14 05:16:29;;;;;;;13.77;5.20;;;;;;;;;;5029499;28;20191;-64
2022/07/14 05:19:12;;;;;;;33.10;10.00;;;;;;;;;;5045072;28;20226;-65
2022/07/14 05:21:43;;;;;;;34.17;12.17;;;;;;;;;;5043946;28;20527;-62
2022/07/14 05:24:24;;;;;;;38.80;12.47;;;;;;;;;;5041809;28;20210;-62
2022/07/14 05:26:59;;;;;;;34.93;11.93;;;;;;;;;;5029689;28;20240;-64
2022/07/14 05:29:44;;;;;;;28.80;11.00;;;;;;;;;;5045329;28;20205;-64
2022/07/14 05:32:18;;;;;;;30.33;9.40;;;;;;;;;;5043870;28;20615;-64
2022/07/14 05:34:51;;;;;;;28.17;9.30;;;;;;;;;;5046390;28;20220;-63
2022/07/14 05:37:20;;;;;;;25.33;8.67;;;;;;;;;;5040349;28;20222;-63
2022/07/14 05:39:51;;;;;;;30.13;7.80;;;;;;;;;;5023591;28;20182;-64
2022/07/14 05:42:23;;;;;;;23.17;7.83;;;;;;;;;;5029705;28;20202;-65
2022/07/14 05:44:55;;;;;;;18.93;6.90;;;;;;;;;;5029589;28;20600;-65
2022/07/14 05:47:27;;;;;;;19.23;6.87;;;;;;;;;;5045312;28;20187;-64
2022/07/14 05:49:57;;;;;;;16.40;6.00;;;;;;;;;;5048177;28;20220;-64
2022/07/14 05:52:30;;;;;;;17.10;6.13;;;;;;;;;;5047093;28;20210;-64
2022/07/14 05:55:01;;;;;;;13.53;4.90;;;;;;;;;;5046250;28;20210;-61
2022/07/14 05:57:30;;;;;;;12.17;4.37;;;;;;;;;;5037086;28;20198;-62
2022/07/14 06:00:08;;;;;;;8.97;3.90;;;;;;;;;;5037959;28;21063;-63
2022/07/14 06:02:39;;;;;;;10.03;4.13;;;;;;;;;;5048225;28;20739;-63
2022/07/14 06:05:12;;;;;;;11.00;3.70;;;;;;;;;;5047682;28;20225;-62
2022/07/14 06:07:44;;;;;;;13.03;3.73;;;;;;;;;;5028443;28;20209;-62
2022/07/14 06:10:18;;;;;;;10.10;2.70;;;;;;;;;;5047098;28;20709;-63
2022/07/14 06:12:51;;;;;;;10.33;3.43;;;;;;;;;;5040756;28;20236;-63
2022/07/14 06:15:21;;;;;;;8.57;2.83;;;;;;;;;;5044416;28;20210;-62
2022/07/14 06:17:54;;;;;;;9.13;2.93;;;;;;;;;;5034366;28;20198;-62
2022/07/14 06:20:25;;;;;;;8.83;2.63;;;;;;;;;;5049771;28;20205;-62
2022/07/14 06:22:53;;;;;;;10.60;3.77;;;;;;;;;;5051889;28;20203;-62
2022/07/14 06:25:24;;;;;;;9.60;2.90;;;;;;;;;;5028033;28;20711;-62
2022/07/14 06:27:54;;;;;;;9.77;3.20;;;;;;;;;;5047701;28;20210;-62
2022/07/14 06:30:37;;;;;;;9.40;2.90;;;;;;;;;;5050839;28;20280;-63
2022/07/14 06:33:10;;;;;;;9.53;3.00;;;;;;;;;;5045488;28;21642;-64
2022/07/14 06:35:43;;;;;;;8.60;3.10;;;;;;;;;;5038544;28;20218;-64
2022/07/14 06:38:50;;;;;;;10.00;2.90;;;;;;;;;;5048966;28;20210;-66
2022/07/14 06:41:20;;;;;;;13.30;3.10;;;;;;;;;;5044543;28;20209;-62
2022/07/14 06:43:49;;;;;;;11.03;3.37;;;;;;;;;;5046840;28;20651;-62
2022/07/14 06:46:17;;;;;;;11.93;3.10;;;;;;;;;;5031779;28;20241;-62
2022/07/14 06:48:47;;;;;;;11.47;3.37;;;;;;;;;;5011976;28;20232;-62
2022/07/14 06:51:19;;;;;;;8.97;3.00;;;;;;;;;;5032964;28;20199;-62
2022/07/14 06:53:47;;;;;;;9.93;2.93;;;;;;;;;;5037350;28;20205;-62
2022/07/14 06:56:18;;;;;;;11.33;3.53;;;;;;;;;;5044982;28;20248;-64
2022/07/14 06:58:53;;;;;;;10.73;3.40;;;;;;;;;;5033488;28;20550;-64
2022/07/14 07:01:23;;;;;;;12.27;2.90;;;;;;;;;;5051287;28;20266;-63
2022/07/14 07:03:56;;;;;;;10.10;2.97;;;;;;;;;;5057719;28;20214;-63
2022/07/14 07:06:44;;;;;;;9.17;2.90;;;;;;;;;;5040509;28;20263;-62
2022/07/14 07:09:18;;;;;;;11.77;3.20;;;;;;;;;;5045532;28;20227;-61
2022/07/14 07:11:50;;;;;;;12.03;3.20;;;;;;;;;;5025989;28;20654;-61
2022/07/14 07:14:20;;;;;;;10.83;3.13;;;;;;;;;;5047960;28;20620;-61
2022/07/14 07:16:53;;;;;;;9.10;3.03;;;;;;;;;;5031333;28;20201;-61
2022/07/14 07:19:26;;;;;;;9.60;3.10;;;;;;;;;;5044722;28;20687;-61
2022/07/14 07:22:02;;;;;;;7.53;2.87;;;;;;;;;;5047869;28;20248;-63
2022/07/14 07:24:32;;;;;;;12.67;3.30;;;;;;;;;;5027351;28;20219;-63
2022/07/14 07:27:03;;;;;;;10.10;2.93;;;;;;;;;;5050838;28;20653;-62
2022/07/14 07:29:36;;;;;;;8.73;2.63;;;;;;;;;;5044958;28;20194;-63
2022/07/14 07:32:08;;;;;;;8.40;2.97;;;;;;;;;;5050271;28;20222;-62
2022/07/14 07:34:45;;;;;;;8.67;2.50;;;;;;;;;;5048717;28;20671;-63
2022/07/14 07:37:18;;;;;;;8.87;2.73;;;;;;;;;;5054412;28;20217;-63
2022/07/14 07:39:58;;;;;;;8.57;2.43;;;;;;;;;;5054901;28;20332;-63
2022/07/14 07:42:28;;;;;;;7.30;2.57;;;;;;;;;;5056936;28;20612;-62
2022/07/14 07:45:01;;;;;;;11.73;2.70;;;;;;;;;;5031102;28;20187;-62
2022/07/14 07:47:31;;;;;;;11.87;3.10;;;;;;;;;;5041814;28;20226;-62
2022/07/14 07:50:02;;;;;;;8.10;2.30;;;;;;;;;;5044789;28;20217;-62
2022/07/14 07:52:33;;;;;;;11.77;3.20;;;;;;;;;;5049534;28;20190;-62
2022/07/14 07:55:10;;;;;;;7.77;2.90;;;;;;;;;;5034512;28;20286;-62
2022/07/14 07:57:54;;;;;;;11.67;3.33;;;;;;;;;;5030174;28;20557;-63
2022/07/14 08:00:26;;;;;;;5.97;2.47;;;;;;;;;;5046568;28;20210;-62
2022/07/14 08:03:01;;;;;;;8.00;2.37;;;;;;;;;;5048234;28;20618;-62
2022/07/14 08:05:35;;;;;;;9.63;2.40;;;;;;;;;;5045806;28;20202;-63
2022/07/14 08:08:28;;;;;;;11.73;3.03;;;;;;;;;;5035664;28;20635;-62
2022/07/14 08:10:58;;;;;;;10.70;3.37;;;;;;;;;;5051571;28;20206;-63
2022/07/14 08:13:28;;;;;;;9.20;2.47;;;;;;;;;;5025440;28;20216;-65
2022/07/14 08:16:05;;;;;;;5.97;2.90;;;;;;;;;;5050444;28;20218;-63
2022/07/14 08:18:35;;;;;;;12.73;3.37;;;;;;;;;;5033527;28;20274;-62
2022/07/14 08:21:04;;;;;;;9.57;3.37;;;;;;;;;;5027900;28;20227;-62
2022/07/14 08:23:33;;;;;;;9.47;3.00;;;;;;;;;;5039335;28;20192;-62
2022/07/14 08:26:06;;;;;;;8.53;3.73;;;;;;;;;;5047409;28;20222;-62
2022/07/14 08:28:37;;;;;;;11.27;3.57;;;;;;;;;;5044727;28;20229;-64
2022/07/14 08:31:10;;;;;;;8.93;3.53;;;;;;;;;;5046699;28;20206;-62
2022/07/14 08:33:43;;;;;;;9.17;3.10;;;;;;;;;;5043582;28;21132;-62
2022/07/14 08:36:14;;;;;;;9.10;3.33;;;;;;;;;;5044748;28;20222;-64
2022/07/14 08:38:44;;;;;;;7.30;3.03;;;;;;;;;;5045799;28;21727;-65
2022/07/14 08:41:30;;;;;;;6.97;3.23;;;;;;;;;;5030135;28;20198;-63
2022/07/14 08:43:58;;;;;;;8.27;3.43;;;;;;;;;;5046391;28;20535;-62
2022/07/14 08:46:32;;;;;;;7.40;2.87;;;;;;;;;;5032549;28;20198;-61
2022/07/14 08:49:09;;;;;;;9.00;2.97;;;;;;;;;;5040783;28;20224;-60
2022/07/14 08:51:44;;;;;;;6.67;3.30;;;;;;;;;;5042441;28;20288;-63
2022/07/14 08:54:16;;;;;;;9.17;2.73;;;;;;;;;;5049937;28;20585;-64
2022/07/14 08:56:48;;;;;;;7.43;2.90;;;;;;;;;;5028972;28;20545;-61
2022/07/14 08:59:20;;;;;;;6.17;2.60;;;;;;;;;;5047150;28;20183;-62
2022/07/14 09:01:58;;;;;;;5.73;2.37;;;;;;;;;;5049980;28;20185;-62
2022/07/14 09:04:30;;;;;;;5.50;2.70;;;;;;;;;;5038283;28;20268;-62
2022/07/14 09:07:00;;;;;;;6.03;2.53;;;;;;;;;;5046085;28;20570;-63
2022/07/14 09:09:36;;;;;;;6.17;2.70;;;;;;;;;;5045161;28;20191;-64
2022/07/14 09:12:08;;;;;;;6.57;2.70;;;;;;;;;;5045806;28;20205;-61
2022/07/14 09:17:29;;;;;;;5.53;2.53;;;;;;;;;;5042820;28;20625;-63
2022/07/14 09:20:28;;;;;;;5.87;2.53;;;;;;;;;;5035541;28;20205;-62
2022/07/14 09:23:01;;;;;;;7.93;2.80;;;;;;;;;;5043374;28;20256;-63
2022/07/14 09:25:39;;;;;;;6.57;2.93;;;;;;;;;;5037806;28;20194;-62
2022/07/14 09:28:08;;;;;;;6.33;2.20;;;;;;;;;;5046365;28;20194;-62
2022/07/14 09:30:37;;;;;;;7.00;2.57;;;;;;;;;;5046104;28;20782;-60
2022/07/14 09:33:06;;;;;;;7.10;2.30;;;;;;;;;;5045782;28;20206;-60
2022/07/14 09:35:38;;;;;;;8.83;3.00;;;;;;;;;;5045261;28;20210;-63
2022/07/14 09:38:25;;;;;;;5.47;2.67;;;;;;;;;;5023335;28;20209;-63
2022/07/14 09:41:08;;;;;;;5.60;2.40;;;;;;;;;;5046865;28;20224;-63
2022/07/14 09:43:41;;;;;;;8.93;3.10;;;;;;;;;;5042747;28;20266;-64
2022/07/14 09:46:14;;;;;;;7.40;2.20;;;;;;;;;;5027868;28;20206;-62
2022/07/14 09:48:46;;;;;;;5.83;2.30;;;;;;;;;;5031445;28;20324;-62
2022/07/14 09:51:29;;;;;;;5.90;2.33;;;;;;;;;;5025445;28;20796;-63
2022/07/14 09:54:05;;;;;;;4.73;1.93;;;;;;;;;;5027038;28;20548;-63
2022/07/14 09:56:35;;;;;;;5.87;1.80;;;;;;;;;;5026635;28;20222;-62
2022/07/14 09:59:06;;;;;;;3.83;1.80;;;;;;;;;;5026814;28;20770;-62
2022/07/14 10:01:38;;;;;;;3.70;1.90;;;;;;;;;;5018939;28;20214;-62
2022/07/14 10:04:10;;;;;;;4.97;1.70;;;;;;;;;;5016898;28;20192;-62
2022/07/14 10:06:43;;;;;;;5.23;2.07;;;;;;;;;;5028610;28;20848;-62
2022/07/14 10:09:16;;;;;;;3.90;1.97;;;;;;;;;;5018119;28;20532;-63
2022/07/14 10:11:50;;;;;;;3.07;1.47;;;;;;;;;;5026315;28;20643;-62
2022/07/14 10:14:19;;;;;;;3.63;1.40;;;;;;;;;;4996503;28;20648;-63
2022/07/14 10:16:51;;;;;;;4.30;1.90;;;;;;;;;;5021113;28;20821;-63
2022/07/14 10:19:22;;;;;;;2.73;1.50;;;;;;;;;;5018265;28;20188;-63
2022/07/14 10:22:00;;;;;;;4.23;1.73;;;;;;;;;;5022501;28;20195;-63
2022/07/14 10:24:31;;;;;;;3.00;1.40;;;;;;;;;;5017228;28;20203;-63
2022/07/14 10:27:04;;;;;;;4.47;1.77;;;;;;;;;;5008181;28;20210;-64
2022/07/14 10:29:36;;;;;;;4.03;1.83;;;;;;;;;;5017970;28;20202;-63
2022/07/14 10:32:11;;;;;;;2.87;1.50;;;;;;;;;;5023711;28;20195;-62
2022/07/14 10:35:04;;;;;;;3.37;1.50;;;;;;;;;;5025930;28;20187;-64
2022/07/14 10:37:38;;;;;;;3.70;1.50;;;;;;;;;;5018704;28;20207;-64
2022/07/14 10:40:15;;;;;;;2.10;1.47;;;;;;;;;;5026362;28;20202;-63
2022/07/14 10:43:04;;;;;;;3.37;1.63;;;;;;;;;;5018118;28;20816;-63
2022/07/14 10:45:52;;;;;;;4.23;1.70;;;;;;;;;;5020957;28;20187;-63
2022/07/14 10:48:36;;;;;;;4.43;1.63;;;;;;;;;;5029553;28;20707;-63
2022/07/14 10:51:26;;;;;;;6.73;2.03;;;;;;;;;;5050813;28;20206;-63
2022/07/14 10:54:20;;;;;;;3.30;1.70;;;;;;;;;;5044599;28;20252;-63
2022/07/14 10:57:12;;;;;;;3.93;1.60;;;;;;;;;;5034779;28;20210;-64
2022/07/14 10:59:48;;;;;;;4.13;1.50;;;;;;;;;;5039766;28;20517;-64
2022/07/14 11:02:20;;;;;;;2.47;1.23;;;;;;;;;;5042046;28;20344;-64
2022/07/14 11:05:02;;;;;;;4.57;1.97;;;;;;;;;;5054261;28;20194;-64
2022/07/14 11:07:42;;;;;;;3.10;1.80;;;;;;;;;;5029726;28;20190;-64
2022/07/14 11:10:26;;;;;;;5.50;1.90;;;;;;;;;;5056598;28;20199;-64
2022/07/14 11:13:06;;;;;;;5.23;1.60;;;;;;;;;;5046934;28;20198;-64
2022/07/14 11:15:53;;;;;;;4.37;1.70;;;;;;;;;;5031748;28;20206;-62
2022/07/14 11:18:42;;;;;;;3.97;1.43;;;;;;;;;;5060211;28;20229;-64
2022/07/14 11:21:13;;;;;;;6.07;1.90;;;;;;;;;;5056493;28;20204;-64
2022/07/14 11:23:57;;;;;;;2.37;1.40;;;;;;;;;;5059080;28;20186;-63
2022/07/14 11:26:38;;;;;;;7.87;2.03;;;;;;;;;;5049084;28;20548;-62
2022/07/14 11:29:32;;;;;;;6.17;2.00;;;;;;;;;;5056348;28;20699;-62
2022/07/14 11:32:29;;;;;;;4.40;1.97;;;;;;;;;;5047698;28;20659;-62
2022/07/14 11:38:00;;;;;;;4.90;1.50;;;;;;;;;;5025510;28;20241;-63
2022/07/14 11:41:02;;;;;;;6.10;1.90;;;;;;;;;;5047594;28;20221;-63
2022/07/14 11:43:30;;;;;;;4.60;1.77;;;;;;;;;;5034036;28;20194;-63
2022/07/14 11:46:17;;;;;;;2.60;1.60;;;;;;;;;;5050985;28;20190;-62
2022/07/14 11:48:55;;;;;;;2.67;1.33;;;;;;;;;;5030514;28;20595;-62
2022/07/14 11:51:42;;;;;;;4.57;1.70;;;;;;;;;;5015791;28;20274;-63
2022/07/14 11:54:15;;;;;;;4.13;1.80;;;;;;;;;;5021053;28;20285;-63
2022/07/14 11:56:44;;;;;;;3.47;1.43;;;;;;;;;;5040529;28;20211;-63
2022/07/14 11:59:20;;;;;;;4.57;1.67;;;;;;;;;;5020847;28;20199;-63
2022/07/14 12:01:52;;;;;;;4.90;2.13;;;;;;;;;;5005471;28;20224;-62
2022/07/14 12:04:23;;;;;;;4.03;1.60;;;;;;;;;;5020969;28;20715;-62
2022/07/14 12:07:07;;;;;;;7.60;1.93;;;;;;;;;;5022446;28;20235;-63
2022/07/14 12:09:37;;;;;;;3.33;1.50;;;;;;;;;;5017204;28;20254;-64
2022/07/14 12:12:15;;;;;;;6.20;1.67;;;;;;;;;;5030557;28;20203;-62
2022/07/14 12:14:49;;;;;;;3.17;1.50;;;;;;;;;;5019406;28;20207;-62
2022/07/14 12:17:20;;;;;;;4.17;1.60;;;;;;;;;;5015530;28;20212;-63
2022/07/14 12:19:50;;;;;;;3.37;1.43;;;;;;;;;;5015626;28;20196;-63
2022/07/14 12:22:24;;;;;;;5.57;1.67;;;;;;;;;;5015571;28;20261;-62
2022/07/14 12:24:58;;;;;;;4.40;1.60;;;;;;;;;;5019354;28;20191;-62
2022/07/14 12:27:30;;;;;;;5.97;1.53;;;;;;;;;;5017964;28;20205;-62
2022/07/14 12:30:01;;;;;;;4.77;1.60;;;;;;;;;;5014641;28;20198;-62
2022/07/14 12:32:34;;;;;;;4.23;1.40;;;;;;;;;;5018219;28;20287;-63
2022/07/14 12:35:02;;;;;;;3.53;1.67;;;;;;;;;;5020314;28;20289;-64
2022/07/14 12:37:36;;;;;;;5.10;1.53;;;;;;;;;;5017444;28;20269;-63
2022/07/14 12:40:29;;;;;;;2.90;1.40;;;;;;;;;;5021285;28;20207;-63
2022/07/14 12:42:59;;;;;;;4.03;1.57;;;;;;;;;;5030437;28;20286;-63
2022/07/14 12:45:31;;;;;;;2.90;1.73;;;;;;;;;;5032719;28;20203;-63
2022/07/14 12:48:03;;;;;;;3.73;1.57;;;;;;;;;;5029892;28;20847;-63
2022/07/14 12:50:34;;;;;;;3.47;1.60;;;;;;;;;;5026114;28;20663;-63
2022/07/14 12:53:12;;;;;;;4.50;1.80;;;;;;;;;;5036948;28;20213;-63
2022/07/14 12:55:46;;;;;;;5.83;1.80;;;;;;;;;;5020804;28;20190;-63
2022/07/14 12:58:21;;;;;;;3.63;1.73;;;;;;;;;;5028118;28;20195;-63
2022/07/14 13:00:49;;;;;;;2.90;1.50;;;;;;;;;;5027176;28;20278;-63
2022/07/14 13:03:21;;;;;;;3.47;1.60;;;;;;;;;;5030423;28;20315;-64
2022/07/14 13:05:57;;;;;;;2.73;1.43;;;;;;;;;;5027658;28;20241;-63
2022/07/14 13:08:42;;;;;;;3.20;1.20;;;;;;;;;;5036146;28;20209;-63
2022/07/14 13:11:14;;;;;;;3.20;1.50;;;;;;;;;;5027102;28;20206;-63
2022/07/14 13:13:51;;;;;;;3.90;1.63;;;;;;;;;;5019394;28;20981;-63
2022/07/14 13:16:25;;;;;;;3.43;1.50;;;;;;;;;;5026950;28;20312;-63
2022/07/14 13:19:09;;;;;;;3.13;1.27;;;;;;;;;;5038878;28;20205;-63
2022/07/14 13:21:50;;;;;;;6.03;1.90;;;;;;;;;;5038838;28;20280;-62
2022/07/14 13:24:27;;;;;;;3.70;1.47;;;;;;;;;;5034532;28;20187;-63
2022/07/14 13:27:12;;;;;;;2.83;1.53;;;;;;;;;;5028516;28;20834;-63
2022/07/14 13:29:53;;;;;;;5.63;1.67;;;;;;;;;;5036899;28;20195;-63
2022/07/14 13:32:30;;;;;;;3.43;1.83;;;;;;;;;;5017772;28;20233;-63
2022/07/14 13:35:05;;;;;;;3.83;1.90;;;;;;;;;;5029826;28;20222;-63
2022/07/14 13:37:37;;;;;;;5.03;1.70;;;;;;;;;;5034416;28;20678;-63
2022/07/14 13:40:08;;;;;;;5.60;1.67;;;;;;;;;;5044249;28;20642;-63
2022/07/14 13:42:38;;;;;;;4.10;1.60;;;;;;;;;;5030884;28;20192;-62
2022/07/14 13:45:08;;;;;;;4.27;1.53;;;;;;;;;;5039116;28;20313;-63
2022/07/14 13:47:39;;;;;;;4.33;1.70;;;;;;;;;;5027625;28;20234;-62
2022/07/14 13:53:00;;;;;;;4.00;1.57;;;;;;;;;;5017760;28;20258;-62
2022/07/14 13:55:34;;;;;;;3.57;1.50;;;;;;;;;;5031972;28;20198;-63
2022/07/14 13:58:04;;;;;;;3.80;1.60;;;;;;;;;;5025195;28;20226;-63
2022/07/14 14:00:37;;;;;;;4.20;1.80;;;;;;;;;;5017240;28;20683;-63
2022/07/14 14:03:23;;;;;;;4.37;1.60;;;;;;;;;;5018614;28;20211;-64
2022/07/14 14:06:05;;;;;;;4.70;1.70;;;;;;;;;;5013058;28;20569;-64
2022/07/14 14:08:40;;;;;;;2.37;1.20;;;;;;;;;;5007521;28;20706;-64
2022/07/14 14:11:12;;;;;;;4.13;1.60;;;;;;;;;;5016288;28;20192;-64
2022/07/14 14:13:42;;;;;;;4.80;1.70;;;;;;;;;;5001089;28;20203;-64
2022/07/14 14:16:12;;;;;;;2.67;1.47;;;;;;;;;;5002189;28;20508;-64
2022/07/14 14:18:42;;;;;;;3.47;1.83;;;;;;;;;;5026121;28;20187;-64
2022/07/14 14:21:14;;;;;;;3.53;1.73;;;;;;;;;;5029802;28;20625;-64
2022/07/14 14:23:43;;;;;;;7.13;1.73;;;;;;;;;;5005009;28;20191;-64
2022/07/14 14:26:15;;;;;;;4.03;1.73;;;;;;;;;;5017729;28;20212;-64
2022/07/14 14:28:49;;;;;;;2.07;1.47;;;;;;;;;;5020253;28;20199;-64
2022/07/14 14:31:21;;;;;;;3.23;1.43;;;;;;;;;;4995902;28;20207;-64
2022/07/14 14:33:52;;;;;;;3.13;1.50;;;;;;;;;;5014277;28;20586;-62
2022/07/14 14:36:20;;;;;;;3.70;1.70;;;;;;;;;;5019256;28;20221;-64
2022/07/14 14:38:50;;;;;;;2.90;1.60;;;;;;;;;;5015043;28;20258;-63
2022/07/14 14:41:25;;;;;;;3.90;1.70;;;;;;;;;;5013673;28;20199;-64
2022/07/14 14:43:57;;;;;;;3.57;1.63;;;;;;;;;;5022027;28;20190;-64
2022/07/14 14:46:28;;;;;;;2.77;1.50;;;;;;;;;;5014798;28;20208;-64
2022/07/14 14:48:58;;;;;;;3.67;1.40;;;;;;;;;;5043120;28;20238;-64
2022/07/14 14:51:28;;;;;;;2.10;1.40;;;;;;;;;;5044221;28;20206;-64
2022/07/14 14:54:01;;;;;;;2.97;1.40;;;;;;;;;;5051604;28;20203;-64
2022/07/14 14:56:30;;;;;;;3.53;1.90;;;;;;;;;;5044785;28;20182;-64
2022/07/14 14:59:03;;;;;;;3.80;1.40;;;;;;;;;;5048768;28;20186;-64
2022/07/14 15:01:40;;;;;;;3.73;1.80;;;;;;;;;;5042571;28;20202;-64
2022/07/14 15:04:11;;;;;;;3.40;1.57;;;;;;;;;;5052763;28;20197;-64
2022/07/14 15:06:43;;;;;;;2.87;1.40;;;;;;;;;;5055143;28;20201;-64
2022/07/14 15:09:13;;;;;;;2.03;1.20;;;;;;;;;;5047196;28;20659;-64
2022/07/14 15:11:42;;;;;;;2.43;1.47;;;;;;;;;;5061829;28;20235;-64
2022/07/14 15:14:15;;;;;;;4.27;1.63;;;;;;;;;;5052236;28;20301;-64
2022/07/14 15:16:47;;;;;;;2.47;1.57;;;;;;;;;;5039860;28;20538;-63
2022/07/14 15:19:19;;;;;;;4.60;1.30;;;;;;;;;;5046675;28;20268;-63
2022/07/14 15:21:46;;;;;;;3.03;1.40;;;;;;;;;;5028730;28;20219;-64
2022/07/14 15:24:18;;;;;;;3.40;1.60;;;;;;;;;;5050136;28;20233;-64
2022/07/14 15:26:45;;;;;;;2.80;1.47;;;;;;;;;;5028189;28;20211;-64
2022/07/14 15:29:37;;;;;;;6.00;1.70;;;;;;;;;;5047397;28;20297;-64
2022/07/14 15:32:09;;;;;;;3.90;1.30;;;;;;;;;;5039556;28;20252;-64
2022/07/14 15:34:40;;;;;;;2.53;1.50;;;;;;;;;;5052521;28;20194;-64